createdAt,value
2022-10-08T00:01:21.492Z,9.33
2022-10-08T00:03:54.515Z,10.27
2022-10-08T00:06:31.175Z,7.00
2022-10-08T00:09:05.496Z,9.53
2022-10-08T00:11:39.458Z,8.57
2022-10-08T00:14:17.263Z,7.17
2022-10-08T00:16:44.354Z,6.37
2022-10-08T00:19:15.186Z,6.63
2022-10-08T00:21:45.270Z,6.17
2022-10-08T00:24:18.827Z,5.83
2022-10-08T00:26:46.504Z,7.13
2022-10-08T00:29:17.081Z,5.80
2022-10-08T00:31:47.680Z,7.47
2022-10-08T00:34:20.298Z,7.20
2022-10-08T00:36:51.807Z,7.00
2022-10-08T00:39:24.181Z,9.20
2022-10-08T00:41:55.558Z,8.67
2022-10-08T00:44:47.505Z,7.97
2022-10-08T00:47:42.627Z,7.40
2022-10-08T00:50:34.496Z,6.13
2022-10-08T00:53:07.823Z,10.00
2022-10-08T00:55:43.137Z,5.73
2022-10-08T00:58:21.718Z,8.17
2022-10-08T01:00:50.496Z,8.77
2022-10-08T01:03:17.960Z,9.73
2022-10-08T01:06:06.183Z,6.97
2022-10-08T01:08:57.802Z,6.07
2022-10-08T01:11:33.347Z,9.07
2022-10-08T01:14:30.507Z,6.07
2022-10-08T01:17:24.433Z,6.10
2022-10-08T01:20:05.026Z,10.47
2022-10-08T01:23:05.759Z,6.73
2022-10-08T01:26:04.399Z,6.60
2022-10-08T01:29:06.068Z,7.40
2022-10-08T01:31:55.398Z,7.23
2022-10-08T01:34:49.451Z,6.20
2022-10-08T01:37:39.292Z,5.83
2022-10-08T01:40:21.209Z,8.70
2022-10-08T01:42:52.054Z,6.13
2022-10-08T01:45:28.260Z,7.83
2022-10-08T01:48:00.063Z,6.73
2022-10-08T01:51:05.182Z,7.37
2022-10-08T01:53:39.731Z,6.53
2022-10-08T01:56:13.730Z,6.93
2022-10-08T01:59:23.607Z,5.47
2022-10-08T02:02:22.974Z,5.30
2022-10-08T02:04:53.449Z,8.00
2022-10-08T02:07:33.094Z,8.30
2022-10-08T02:10:14.822Z,7.00
2022-10-08T02:12:44.442Z,7.20
2022-10-08T02:16:01.811Z,7.13
2022-10-08T02:19:14.032Z,6.60
2022-10-08T02:21:42.922Z,7.37
2022-10-08T02:24:37.209Z,6.93
2022-10-08T02:27:08.300Z,5.57
2022-10-08T02:29:46.141Z,6.50
2022-10-08T02:32:25.257Z,7.50
2022-10-08T02:35:22.980Z,6.30
2022-10-08T02:38:03.687Z,9.13
2022-10-08T02:40:34.695Z,5.73
2022-10-08T02:43:12.267Z,5.20
2022-10-08T02:45:53.225Z,8.40
2022-10-08T02:48:31.444Z,8.27
2022-10-08T02:51:14.108Z,6.03
2022-10-08T02:53:42.722Z,6.97
2022-10-08T02:56:55.854Z,6.67
2022-10-08T02:59:24.133Z,6.27
2022-10-08T03:02:01.547Z,6.07
2022-10-08T03:04:53.589Z,7.97
2022-10-08T03:07:24.304Z,7.93
2022-10-08T03:09:55.274Z,8.23
2022-10-08T03:12:22.377Z,8.67
2022-10-08T03:14:50.458Z,7.07
2022-10-08T03:17:25.506Z,8.03
2022-10-08T03:19:52.912Z,7.10
2022-10-08T03:22:20.506Z,6.27
2022-10-08T03:24:47.662Z,6.80
2022-10-08T03:27:14.726Z,6.97
2022-10-08T03:29:41.898Z,6.37
2022-10-08T03:32:09.620Z,5.47
2022-10-08T03:34:36.696Z,6.80
2022-10-08T03:37:04.440Z,8.17
2022-10-08T03:39:31.483Z,6.23
2022-10-08T03:41:58.593Z,5.93
2022-10-08T03:44:25.657Z,4.43
2022-10-08T03:46:52.730Z,6.27
2022-10-08T03:49:19.734Z,6.07
2022-10-08T03:51:46.905Z,6.13
2022-10-08T03:54:13.851Z,4.90
2022-10-08T03:56:41.015Z,5.40
2022-10-08T03:59:08.259Z,6.63
2022-10-08T04:01:35.491Z,6.70
2022-10-08T04:04:02.860Z,10.30
2022-10-08T04:06:30.094Z,8.73
2022-10-08T04:09:01.152Z,5.20
2022-10-08T04:11:29.717Z,5.63
2022-10-08T04:13:56.950Z,6.70
2022-10-08T04:16:24.047Z,4.87
2022-10-08T04:18:51.318Z,5.13
2022-10-08T04:21:19.836Z,6.17
2022-10-08T04:23:50.248Z,5.73
2022-10-08T04:26:18.466Z,6.80
2022-10-08T04:28:47.372Z,5.07
2022-10-08T04:31:18.553Z,6.13
2022-10-08T04:33:46.927Z,4.63
2022-10-08T04:36:21.111Z,4.80
2022-10-08T04:38:49.058Z,3.60
2022-10-08T04:41:23.614Z,6.43
2022-10-08T04:43:53.270Z,4.47
2022-10-08T04:46:22.477Z,5.77
2022-10-08T04:48:55.876Z,5.50
2022-10-08T04:51:26.397Z,3.87
2022-10-08T04:53:57.308Z,4.53
2022-10-08T04:56:28.125Z,4.10
2022-10-08T04:58:57.593Z,6.13
2022-10-08T05:01:26.845Z,4.90
2022-10-08T05:03:56.813Z,5.60
2022-10-08T05:06:28.594Z,4.47
2022-10-08T05:08:56.643Z,4.53
2022-10-08T05:11:27.017Z,5.37
2022-10-08T05:13:56.498Z,3.73
2022-10-08T05:16:25.208Z,4.43
2022-10-08T05:18:52.953Z,5.10
2022-10-08T05:21:24.540Z,6.67
2022-10-08T05:24:03.510Z,6.10
2022-10-08T05:29:24.563Z,5.27
2022-10-08T05:31:51.842Z,4.93
2022-10-08T05:34:19.010Z,3.90
2022-10-08T05:36:46.363Z,5.10
2022-10-08T05:39:13.962Z,4.53
2022-10-08T05:41:41.951Z,7.67
2022-10-08T05:44:11.587Z,5.03
2022-10-08T05:46:40.333Z,5.33
2022-10-08T05:49:14.674Z,6.73
2022-10-08T05:51:41.792Z,6.70
2022-10-08T05:54:09.094Z,5.87
2022-10-08T05:56:36.240Z,6.10
2022-10-08T05:59:03.407Z,8.80
2022-10-08T06:01:33.170Z,10.93
2022-10-08T06:04:08.655Z,10.67
2022-10-08T06:06:39.355Z,13.23
2022-10-08T06:09:08.136Z,11.40
2022-10-08T06:11:38.092Z,11.87
2022-10-08T06:14:07.340Z,15.73
2022-10-08T06:16:35.757Z,16.73
2022-10-08T06:19:05.171Z,18.57
2022-10-08T06:21:32.950Z,17.87
2022-10-08T06:24:04.088Z,16.63
2022-10-08T06:26:40.297Z,17.83
2022-10-08T06:29:15.353Z,18.97
2022-10-08T06:31:43.375Z,17.53
2022-10-08T06:34:10.815Z,21.10
2022-10-08T06:36:38.126Z,18.47
2022-10-08T06:39:11.045Z,18.50
2022-10-08T06:41:38.740Z,18.60
2022-10-08T06:44:10.516Z,19.97
2022-10-08T06:46:37.737Z,22.27
2022-10-08T06:49:08.640Z,20.00
2022-10-08T06:51:36.192Z,18.67
2022-10-08T06:55:18.262Z,21.17
2022-10-08T06:57:45.370Z,20.83
2022-10-08T07:00:13.096Z,20.00
2022-10-08T07:02:40.205Z,17.40
2022-10-08T07:05:08.380Z,18.63
2022-10-08T07:07:35.774Z,19.77
2022-10-08T07:10:03.983Z,20.30
2022-10-08T07:12:32.911Z,17.30
2022-10-08T07:15:00.721Z,17.73
2022-10-08T07:18:05.319Z,19.07
2022-10-08T07:20:32.544Z,18.83
2022-10-08T07:22:59.594Z,18.67
2022-10-08T07:25:26.799Z,17.57
2022-10-08T07:27:53.862Z,16.33
2022-10-08T07:30:21.073Z,20.13
2022-10-08T07:32:48.814Z,19.03
2022-10-08T07:35:16.389Z,19.73
2022-10-08T07:37:43.743Z,21.13
2022-10-08T07:40:11.520Z,20.23
2022-10-08T07:42:38.721Z,17.77
2022-10-08T07:45:06.569Z,18.33
2022-10-08T07:47:33.759Z,18.93
2022-10-08T07:50:00.896Z,17.60
2022-10-08T07:52:30.140Z,21.03
2022-10-08T07:54:57.230Z,20.63
2022-10-08T07:57:24.355Z,18.40
2022-10-08T07:59:51.783Z,20.47
2022-10-08T08:02:19.108Z,19.00
2022-10-08T08:04:46.659Z,19.50
2022-10-08T08:07:13.925Z,18.97
2022-10-08T08:09:41.120Z,20.13
2022-10-08T08:12:08.240Z,21.80
2022-10-08T08:14:35.343Z,18.30
2022-10-08T08:17:02.542Z,19.20
2022-10-08T08:19:29.686Z,15.17
2022-10-08T08:21:57.174Z,15.03
2022-10-08T08:24:24.214Z,17.30
2022-10-08T08:26:54.319Z,16.17
2022-10-08T08:29:24.058Z,14.13
2022-10-08T08:31:51.384Z,14.37
2022-10-08T08:34:22.680Z,16.17
2022-10-08T08:36:53.725Z,11.83
2022-10-08T08:39:28.340Z,16.47
2022-10-08T08:42:26.852Z,13.60
2022-10-08T08:45:05.941Z,13.73
2022-10-08T08:47:36.400Z,13.13
2022-10-08T08:50:15.828Z,10.67
2022-10-08T08:52:46.784Z,12.07
2022-10-08T08:55:21.819Z,10.00
2022-10-08T08:58:32.718Z,9.40
2022-10-08T09:01:09.016Z,12.20
2022-10-08T09:03:51.192Z,8.67
2022-10-08T09:06:23.059Z,10.17
2022-10-08T09:08:55.414Z,9.33
2022-10-08T09:11:24.438Z,7.10
2022-10-08T09:14:28.108Z,8.63
2022-10-08T09:16:57.592Z,7.53
2022-10-08T09:19:24.815Z,7.60
2022-10-08T09:21:51.930Z,10.77
2022-10-08T09:24:19.933Z,8.57
2022-10-08T09:26:47.044Z,9.30
2022-10-08T09:29:33.833Z,4.83
2022-10-08T09:32:01.212Z,5.47
2022-10-08T09:34:28.573Z,5.47
2022-10-08T09:37:06.165Z,4.33
2022-10-08T09:39:38.392Z,4.87
2022-10-08T09:42:08.597Z,4.00
2022-10-08T09:44:59.134Z,6.73
2022-10-08T09:47:27.445Z,3.87
2022-10-08T09:50:22.041Z,4.67
2022-10-08T09:52:52.999Z,4.67
2022-10-08T09:55:36.397Z,5.40
2022-10-08T09:58:04.370Z,4.00
2022-10-08T10:00:39.615Z,3.63
2022-10-08T10:03:17.307Z,3.77
2022-10-08T10:05:51.754Z,4.40
2022-10-08T10:08:48.808Z,4.43
2022-10-08T10:11:41.957Z,4.70
2022-10-08T10:14:33.447Z,4.93
2022-10-08T10:17:29.576Z,4.07
2022-10-08T10:20:21.407Z,4.00
2022-10-08T10:23:41.122Z,3.67
2022-10-08T10:26:37.235Z,4.97
2022-10-08T10:29:20.261Z,2.20
2022-10-08T10:32:08.976Z,3.73
2022-10-08T10:34:43.140Z,3.40
2022-10-08T10:37:29.479Z,3.97
2022-10-08T10:40:26.943Z,3.73
2022-10-08T10:43:13.310Z,3.83
2022-10-08T10:48:31.586Z,4.07
2022-10-08T10:51:18.279Z,3.20
2022-10-08T10:54:28.068Z,2.87
2022-10-08T10:57:26.648Z,4.33
2022-10-08T11:00:06.764Z,2.70
2022-10-08T11:02:54.376Z,4.17
2022-10-08T11:05:29.913Z,1.80
2022-10-08T11:08:25.705Z,3.53
2022-10-08T11:11:33.698Z,3.40
2022-10-08T11:14:28.700Z,4.13
2022-10-08T11:17:32.455Z,2.47
2022-10-08T11:20:28.905Z,3.40
2022-10-08T11:23:15.862Z,4.67
2022-10-08T11:26:20.548Z,3.30
2022-10-08T11:29:07.179Z,3.33
2022-10-08T11:31:46.484Z,4.50
2022-10-08T11:34:27.026Z,3.20
2022-10-08T11:37:06.050Z,4.00
2022-10-08T11:39:57.549Z,2.17
2022-10-08T11:42:50.060Z,3.33
2022-10-08T11:45:23.472Z,3.00
2022-10-08T11:47:54.478Z,3.57
2022-10-08T11:50:36.104Z,3.27
2022-10-08T11:53:16.699Z,4.37
2022-10-08T11:55:58.215Z,4.37
2022-10-08T11:58:34.320Z,3.07
2022-10-08T12:01:06.948Z,1.73
2022-10-08T12:03:39.048Z,2.93
2022-10-08T12:06:28.185Z,2.90
2022-10-08T12:09:05.124Z,4.33
2022-10-08T12:11:32.238Z,2.43
2022-10-08T12:14:11.500Z,2.90
2022-10-08T12:17:17.232Z,3.67
2022-10-08T12:20:02.219Z,1.93
2022-10-08T12:22:29.357Z,4.33
2022-10-08T12:24:59.654Z,6.67
2022-10-08T12:27:34.123Z,4.03
2022-10-08T12:30:16.584Z,3.33
2022-10-08T12:32:43.845Z,3.40
2022-10-08T12:35:34.892Z,3.93
2022-10-08T12:38:27.240Z,3.37
2022-10-08T12:41:13.021Z,4.13
2022-10-08T12:44:35.832Z,2.60
2022-10-08T12:47:44.788Z,3.53
2022-10-08T12:50:27.049Z,2.57
2022-10-08T12:52:54.468Z,2.50
2022-10-08T12:55:23.963Z,4.70
2022-10-08T12:57:52.711Z,4.00
2022-10-08T13:00:34.317Z,3.03
2022-10-08T13:03:12.663Z,3.63
2022-10-08T13:05:43.599Z,2.90
2022-10-08T13:08:42.816Z,2.23
2022-10-08T13:11:15.629Z,3.13
2022-10-08T13:13:51.119Z,2.73
2022-10-08T13:16:24.802Z,4.27
2022-10-08T13:18:58.824Z,1.80
2022-10-08T13:21:32.435Z,2.47
2022-10-08T13:24:02.671Z,3.37
2022-10-08T13:26:52.333Z,3.23
2022-10-08T13:29:22.567Z,2.47
2022-10-08T13:32:13.856Z,3.63
2022-10-08T13:34:41.203Z,2.67
2022-10-08T13:37:15.858Z,3.53
2022-10-08T13:40:19.403Z,2.00
2022-10-08T13:42:52.293Z,3.10
2022-10-08T13:45:39.226Z,3.67
2022-10-08T13:48:13.913Z,2.20
2022-10-08T13:50:46.948Z,2.83
2022-10-08T13:53:19.625Z,3.80
2022-10-08T13:55:50.572Z,3.20
2022-10-08T13:58:20.179Z,2.00
2022-10-08T14:00:49.434Z,2.07
2022-10-08T14:03:17.212Z,3.83
2022-10-08T14:05:47.193Z,2.47
2022-10-08T14:08:29.479Z,4.03
2022-10-08T14:10:58.503Z,4.70
2022-10-08T14:13:26.745Z,4.13
2022-10-08T14:15:54.332Z,2.83
2022-10-08T14:18:21.749Z,5.07
2022-10-08T14:20:51.465Z,3.23
2022-10-08T14:23:20.398Z,3.53
2022-10-08T14:25:47.658Z,2.77
2022-10-08T14:28:14.868Z,3.23
2022-10-08T14:30:54.435Z,3.67
2022-10-08T14:33:21.700Z,4.30
2022-10-08T14:35:53.867Z,2.87
2022-10-08T14:38:20.997Z,2.20
2022-10-08T14:40:48.259Z,2.87
2022-10-08T14:43:15.453Z,2.07
2022-10-08T14:45:42.623Z,2.50
2022-10-08T14:48:11.262Z,2.33
2022-10-08T14:50:38.498Z,1.40
2022-10-08T14:53:05.713Z,2.43
2022-10-08T14:55:41.043Z,5.13
2022-10-08T14:58:20.160Z,16.90
2022-10-08T15:00:54.399Z,2.50
2022-10-08T15:03:23.081Z,2.37
2022-10-08T15:05:52.489Z,2.57
2022-10-08T15:08:20.704Z,2.43
2022-10-08T15:10:48.126Z,3.07
2022-10-08T15:13:15.422Z,3.33
2022-10-08T15:15:44.575Z,3.27
2022-10-08T15:18:12.506Z,4.20
2022-10-08T15:20:39.933Z,1.97
2022-10-08T15:23:10.346Z,1.90
2022-10-08T15:25:37.888Z,3.97
2022-10-08T15:28:05.504Z,1.73
2022-10-08T15:30:32.697Z,6.60
2022-10-08T15:33:05.121Z,3.33
2022-10-08T15:35:35.910Z,3.30
2022-10-08T15:38:03.022Z,3.73
2022-10-08T15:40:32.016Z,1.97
2022-10-08T15:42:59.211Z,4.30
2022-10-08T15:45:26.351Z,2.87
2022-10-08T15:47:53.530Z,2.23
2022-10-08T15:50:20.733Z,3.43
2022-10-08T15:52:48.485Z,2.60
2022-10-08T15:55:17.661Z,3.70
2022-10-08T15:57:44.907Z,1.83
2022-10-08T16:00:13.188Z,1.83
2022-10-08T16:02:42.751Z,3.83
2022-10-08T16:05:10.005Z,2.07
2022-10-08T16:07:37.209Z,3.00
2022-10-08T16:10:05.018Z,2.30
2022-10-08T16:12:32.222Z,2.87
2022-10-08T16:14:59.535Z,2.57
2022-10-08T16:17:30.663Z,2.17
2022-10-08T16:19:57.734Z,4.27
2022-10-08T16:22:25.078Z,2.93
2022-10-08T16:24:52.375Z,2.00
2022-10-08T16:27:19.806Z,3.70
2022-10-08T16:29:47.159Z,2.03
2022-10-08T16:32:16.195Z,2.47
2022-10-08T16:34:45.106Z,2.27
2022-10-08T16:37:13.308Z,5.70
2022-10-08T16:39:40.438Z,58.03
2022-10-08T16:42:07.561Z,65.23
2022-10-08T16:44:34.663Z,67.80
2022-10-08T16:47:01.799Z,31.10
2022-10-08T16:49:30.060Z,15.37
2022-10-08T16:52:01.103Z,9.10
2022-10-08T16:54:28.923Z,13.10
2022-10-08T16:56:56.895Z,6.47
2022-10-08T16:59:27.282Z,5.33
2022-10-08T17:01:57.784Z,4.77
2022-10-08T17:04:28.222Z,4.43
2022-10-08T17:06:55.970Z,8.03
2022-10-08T17:09:23.703Z,5.47
2022-10-08T17:11:51.868Z,4.47
2022-10-08T17:14:19.113Z,5.73
2022-10-08T17:16:46.513Z,4.63
2022-10-08T17:19:14.135Z,7.27
2022-10-08T17:21:41.722Z,7.63
2022-10-08T17:24:12.342Z,10.93
2022-10-08T17:26:40.690Z,5.27
2022-10-08T17:29:11.972Z,4.93
2022-10-08T17:31:40.151Z,7.50
2022-10-08T17:34:09.726Z,8.27
2022-10-08T17:36:41.247Z,9.83
2022-10-08T17:39:13.625Z,8.30
2022-10-08T17:41:43.228Z,7.47
2022-10-08T17:44:11.511Z,4.33
2022-10-08T17:46:46.155Z,3.60
2022-10-08T17:49:19.728Z,7.17
2022-10-08T17:51:48.050Z,7.33
2022-10-08T17:54:21.699Z,6.37
2022-10-08T17:56:49.515Z,6.60
2022-10-08T17:59:22.912Z,6.10
2022-10-08T18:01:50.926Z,5.40
2022-10-08T18:04:19.720Z,18.30
2022-10-08T18:06:48.891Z,10.97
2022-10-08T18:09:21.629Z,15.07
2022-10-08T18:11:53.473Z,9.03
2022-10-08T18:14:22.589Z,11.93
2022-10-08T18:16:49.956Z,9.27
2022-10-08T18:19:18.626Z,8.60
2022-10-08T18:21:46.426Z,6.33
2022-10-08T18:24:13.979Z,9.40
2022-10-08T18:26:41.256Z,9.03
2022-10-08T18:29:12.150Z,7.27
2022-10-08T18:31:59.397Z,7.50
2022-10-08T18:34:26.499Z,7.83
2022-10-08T18:36:53.744Z,6.13
2022-10-08T18:39:26.081Z,5.70
2022-10-08T18:41:55.458Z,7.27
2022-10-08T18:44:25.598Z,5.67
2022-10-08T18:46:53.477Z,6.07
2022-10-08T18:49:30.505Z,7.13
2022-10-08T18:51:59.295Z,7.73
2022-10-08T18:54:26.479Z,7.83
2022-10-08T18:56:55.399Z,6.83
2022-10-08T18:59:22.986Z,4.50
2022-10-08T19:01:50.451Z,10.30
2022-10-08T19:04:21.670Z,6.50
2022-10-08T19:06:52.435Z,7.43
2022-10-08T19:09:20.128Z,9.63
2022-10-08T19:11:51.137Z,6.20
2022-10-08T19:14:21.919Z,8.13
2022-10-08T19:16:49.859Z,8.07
2022-10-08T19:19:23.768Z,7.17
2022-10-08T19:21:53.151Z,7.67
2022-10-08T19:24:23.777Z,8.77
2022-10-08T19:26:52.927Z,9.63
2022-10-08T19:29:25.656Z,9.13
2022-10-08T19:31:53.325Z,9.73
2022-10-08T19:34:24.949Z,7.27
2022-10-08T19:36:52.930Z,9.87
2022-10-08T19:39:24.963Z,9.93
2022-10-08T19:41:52.496Z,10.33
2022-10-08T19:44:20.587Z,9.20
2022-10-08T19:46:48.296Z,9.23
2022-10-08T19:49:15.939Z,8.20
2022-10-08T19:51:43.795Z,9.27
2022-10-08T19:54:12.108Z,9.53
2022-10-08T19:56:39.873Z,7.63
2022-10-08T19:59:07.053Z,7.20
2022-10-08T20:01:40.082Z,6.73
2022-10-08T20:04:09.373Z,7.07
2022-10-08T20:06:40.778Z,9.47
2022-10-08T20:09:12.228Z,8.57
2022-10-08T20:11:42.105Z,7.57
2022-10-08T20:14:09.753Z,6.67
2022-10-08T20:16:41.072Z,8.40
2022-10-08T20:19:21.302Z,9.93
2022-10-08T20:21:51.087Z,6.97
2022-10-08T20:24:19.323Z,7.80
2022-10-08T20:26:49.189Z,10.53
2022-10-08T20:29:21.693Z,8.40
2022-10-08T20:31:55.307Z,8.73
2022-10-08T20:34:31.167Z,9.57
2022-10-08T20:37:01.590Z,7.77
2022-10-08T20:39:29.980Z,12.33
2022-10-08T20:41:58.400Z,13.33
2022-10-08T20:44:25.576Z,9.33
2022-10-08T20:46:53.191Z,10.60
2022-10-08T20:49:20.620Z,10.07
2022-10-08T20:51:48.017Z,9.17
2022-10-08T20:54:17.632Z,8.07
2022-10-08T20:56:45.189Z,9.43
2022-10-08T20:59:18.156Z,12.47
2022-10-08T21:01:46.482Z,9.37
2022-10-08T21:04:13.791Z,7.07
2022-10-08T21:06:47.272Z,6.90
2022-10-08T21:09:17.149Z,8.10
2022-10-08T21:11:48.096Z,8.77
2022-10-08T21:14:21.655Z,6.57
2022-10-08T21:16:50.061Z,7.77
2022-10-08T21:19:23.828Z,7.13
2022-10-08T21:21:52.388Z,8.30
2022-10-08T21:24:19.872Z,6.67
2022-10-08T21:26:47.432Z,8.33
2022-10-08T21:29:15.308Z,7.57
2022-10-08T21:31:43.332Z,7.50
2022-10-08T21:34:14.039Z,8.43
2022-10-08T21:36:42.569Z,8.43
2022-10-08T21:39:15.859Z,8.73
2022-10-08T21:41:43.468Z,7.37
2022-10-08T21:44:10.962Z,6.87
2022-10-08T21:46:42.144Z,5.00
2022-10-08T21:49:20.807Z,5.83
2022-10-08T21:51:48.303Z,5.70
2022-10-08T21:54:17.103Z,7.73
2022-10-08T21:56:45.295Z,8.90
2022-10-08T21:59:15.741Z,6.20
2022-10-08T22:01:50.109Z,7.27
2022-10-08T22:04:21.257Z,6.47
2022-10-08T22:06:55.607Z,7.50
2022-10-08T22:09:29.739Z,5.20
2022-10-08T22:11:58.839Z,7.53
2022-10-08T22:14:26.849Z,5.23
2022-10-08T22:16:54.528Z,7.07
2022-10-08T22:19:21.801Z,6.53
2022-10-08T22:21:49.290Z,4.60
2022-10-08T22:24:16.637Z,6.03
2022-10-08T22:26:47.412Z,7.33
2022-10-08T22:29:15.700Z,5.83
2022-10-08T22:31:43.003Z,6.10
2022-10-08T22:34:10.602Z,4.53
2022-10-08T22:36:43.153Z,7.07
2022-10-08T22:39:10.578Z,5.33
2022-10-08T22:41:38.466Z,5.37
2022-10-08T22:44:06.092Z,7.33
2022-10-08T22:46:39.409Z,6.20
2022-10-08T22:49:10.412Z,6.90
2022-10-08T22:51:38.356Z,5.73
2022-10-08T22:54:06.142Z,5.73
2022-10-08T22:56:33.521Z,7.47
2022-10-08T22:59:02.095Z,7.40
2022-10-08T23:01:30.674Z,7.33
2022-10-08T23:03:58.792Z,6.63
2022-10-08T23:06:32.722Z,9.03
2022-10-08T23:09:04.113Z,7.43
2022-10-08T23:11:37.956Z,5.53
2022-10-08T23:17:18.747Z,8.30
2022-10-08T23:19:45.943Z,5.43
2022-10-08T23:22:16.059Z,6.17
2022-10-08T23:24:43.205Z,8.03
2022-10-08T23:27:10.299Z,5.90
2022-10-08T23:29:37.494Z,5.70
2022-10-08T23:32:04.648Z,5.47
2022-10-08T23:34:31.928Z,6.90
2022-10-08T23:36:59.091Z,7.23
2022-10-08T23:39:26.258Z,5.70
2022-10-08T23:41:53.350Z,6.87
2022-10-08T23:44:20.788Z,5.37
2022-10-08T23:46:53.861Z,7.60
2022-10-08T23:49:21.004Z,7.70
2022-10-08T23:51:48.030Z,8.87
2022-10-08T23:54:15.202Z,5.90
2022-10-08T23:56:42.338Z,7.23
2022-10-08T23:59:09.606Z,6.80
